createdAt,value
2023-12-31T04:50:28.925Z,93.59
2023-12-31T04:51:28.505Z,93.49
2023-12-31T04:52:28.412Z,93.38
2023-12-31T04:53:28.403Z,93.28
2023-12-31T04:54:28.375Z,93.59
2023-12-31T04:55:28.341Z,93.59
2023-12-31T04:56:28.357Z,93.59
2023-12-31T04:57:28.346Z,93.49
2023-12-31T04:58:28.359Z,93.38
2023-12-31T04:59:28.295Z,93.28
2023-12-31T05:00:28.276Z,93.38
2023-12-31T05:01:28.403Z,93.38
2023-12-31T05:02:28.274Z,93.33
2023-12-31T05:03:28.316Z,93.33
2023-12-31T05:04:28.280Z,93.33
2023-12-31T05:05:28.247Z,93.33
2023-12-31T05:06:28.241Z,93.23
2023-12-31T05:07:28.251Z,93.13
2023-12-31T05:08:28.195Z,93.02
2023-12-31T05:09:28.203Z,93.13
2023-12-31T05:10:28.216Z,93.13
2023-12-31T05:11:28.174Z,93.02
2023-12-31T05:12:28.148Z,93.13
2023-12-31T05:13:28.213Z,93.02
2023-12-31T05:14:28.153Z,92.93
2023-12-31T05:15:28.132Z,92.93
2023-12-31T05:16:28.173Z,92.93
2023-12-31T05:17:28.248Z,92.93
2023-12-31T05:18:28.203Z,92.82
2023-12-31T05:19:28.086Z,92.82
2023-12-31T05:20:28.082Z,92.72
2023-12-31T05:21:28.063Z,92.61
2023-12-31T05:22:28.098Z,92.72
2023-12-31T05:23:28.082Z,92.93
2023-12-31T05:24:28.019Z,92.82
2023-12-31T05:25:28.082Z,92.61
2023-12-31T05:26:28.038Z,92.72
2023-12-31T05:27:27.999Z,92.72
2023-12-31T05:28:28.032Z,92.93
2023-12-31T05:29:27.984Z,92.82
2023-12-31T05:30:27.980Z,93.02
2023-12-31T05:31:27.992Z,93.13
2023-12-31T05:32:27.968Z,93.13
2023-12-31T05:33:27.944Z,93.13
2023-12-31T05:34:27.917Z,93.02
2023-12-31T05:35:27.931Z,93.23
2023-12-31T05:36:27.897Z,93.29
2023-12-31T05:37:27.939Z,93.29
2023-12-31T05:38:27.884Z,93.19
2023-12-31T05:39:27.873Z,93.08
2023-12-31T05:40:27.866Z,93.08
2023-12-31T05:41:27.853Z,92.78
2023-12-31T05:42:27.831Z,92.88
2023-12-31T05:43:27.851Z,92.78
2023-12-31T05:44:27.813Z,92.78
2023-12-31T05:45:27.803Z,92.68
2023-12-31T05:46:27.861Z,92.68
2023-12-31T05:47:45.207Z,92.68
2023-12-31T05:48:27.913Z,92.63
2023-12-31T05:49:27.997Z,92.74
2023-12-31T05:50:27.773Z,92.53
2023-12-31T05:51:27.789Z,92.43
2023-12-31T05:52:27.752Z,92.22
2023-12-31T05:53:27.892Z,92.11
2023-12-31T05:54:27.700Z,92.22
2023-12-31T05:55:27.723Z,92.43
2023-12-31T05:56:27.693Z,92.53
2023-12-31T05:57:27.687Z,92.53
2023-12-31T05:58:27.690Z,92.32
2023-12-31T05:59:27.656Z,92.22
2023-12-31T06:00:27.641Z,92.22
2023-12-31T06:01:27.650Z,92.32
2023-12-31T06:02:27.638Z,92.22
2023-12-31T06:03:27.672Z,92.32
2023-12-31T06:04:27.592Z,92.11
2023-12-31T06:05:27.612Z,92.22
2023-12-31T06:06:27.589Z,92.11
2023-12-31T06:07:27.644Z,92.11
2023-12-31T06:08:27.544Z,92.11
2023-12-31T06:09:27.541Z,92.22
2023-12-31T06:10:27.597Z,92.53
2023-12-31T06:11:27.519Z,92.22
2023-12-31T06:12:27.532Z,92.22
2023-12-31T06:13:27.590Z,92.11
2023-12-31T06:14:27.489Z,92.22
2023-12-31T06:15:27.528Z,92.11
2023-12-31T06:16:27.551Z,91.91
2023-12-31T06:17:27.494Z,91.91
2023-12-31T06:18:27.512Z,91.91
2023-12-31T06:19:27.503Z,91.91
2023-12-31T06:20:27.438Z,91.91
2023-12-31T06:21:27.427Z,91.91
2023-12-31T06:22:27.458Z,91.91
2023-12-31T06:23:27.384Z,91.76
2023-12-31T06:24:27.399Z,91.55
2023-12-31T06:25:27.403Z,91.66
2023-12-31T06:26:27.388Z,91.76
2023-12-31T06:27:27.348Z,91.66
2023-12-31T06:28:27.383Z,91.45
2023-12-31T06:29:27.343Z,91.55
2023-12-31T06:30:27.444Z,91.55
2023-12-31T06:31:27.495Z,91.45
2023-12-31T06:32:27.434Z,91.66
2023-12-31T06:33:27.424Z,91.55
2023-12-31T06:34:27.316Z,91.55
2023-12-31T06:35:27.280Z,91.66
2023-12-31T06:36:27.292Z,91.55
2023-12-31T06:37:27.344Z,91.35
2023-12-31T06:38:27.241Z,91.45
2023-12-31T06:39:27.218Z,91.24
2023-12-31T06:40:27.273Z,91.24
2023-12-31T06:41:27.200Z,91.24
2023-12-31T06:42:27.214Z,91.35
2023-12-31T06:43:27.208Z,91.55
2023-12-31T06:44:27.204Z,91.45
2023-12-31T06:45:27.170Z,91.35
2023-12-31T06:46:27.199Z,91.35
2023-12-31T06:47:27.159Z,91.30
2023-12-31T06:48:27.137Z,91.30
2023-12-31T06:49:27.156Z,91.20
2023-12-31T06:50:27.122Z,91.41
2023-12-31T06:51:27.091Z,90.99
2023-12-31T06:52:27.088Z,90.68
2023-12-31T06:53:27.104Z,90.68
2023-12-31T06:54:27.100Z,90.78
2023-12-31T06:55:27.078Z,90.99
2023-12-31T06:56:27.053Z,91.09
2023-12-31T06:57:27.029Z,91.09
2023-12-31T06:58:27.066Z,90.99
2023-12-31T06:59:27.060Z,90.99
2023-12-31T07:00:26.992Z,90.78
2023-12-31T07:01:27.100Z,90.68
2023-12-31T07:02:27.115Z,90.78
2023-12-31T07:03:26.971Z,90.68
2023-12-31T07:04:26.993Z,90.78
2023-12-31T07:05:26.989Z,90.78
2023-12-31T07:06:26.932Z,90.89
2023-12-31T07:07:26.925Z,90.78
2023-12-31T07:08:26.926Z,90.58
2023-12-31T07:09:26.933Z,90.58
2023-12-31T07:10:26.965Z,90.68
2023-12-31T07:11:26.865Z,90.37
2023-12-31T07:12:26.913Z,90.37
2023-12-31T07:13:26.932Z,90.26
2023-12-31T07:14:26.893Z,90.26
2023-12-31T07:15:26.875Z,90.47
2023-12-31T07:16:26.832Z,90.26
2023-12-31T07:17:30.191Z,90.37
2023-12-31T07:18:26.947Z,90.16
2023-12-31T07:19:26.828Z,89.96
2023-12-31T07:20:26.769Z,89.92
2023-12-31T07:21:26.791Z,89.96
2023-12-31T07:22:26.862Z,90.23
2023-12-31T07:23:26.756Z,90.26
2023-12-31T07:24:26.758Z,90.33
2023-12-31T07:25:26.812Z,90.44
2023-12-31T07:26:26.712Z,90.44
2023-12-31T07:27:26.695Z,90.53
2023-12-31T07:28:26.741Z,90.64
2023-12-31T07:29:26.693Z,90.53
2023-12-31T07:30:26.716Z,90.53
2023-12-31T07:31:26.702Z,90.89
2023-12-31T07:32:26.708Z,90.89
2023-12-31T07:33:26.662Z,90.68
2023-12-31T07:34:26.683Z,90.78
2023-12-31T07:35:26.618Z,90.78
2023-12-31T07:36:26.695Z,90.84
2023-12-31T07:37:26.636Z,91.05
2023-12-31T07:38:26.589Z,90.84
2023-12-31T07:41:04.880Z,91.99
2023-12-31T07:42:05.979Z,92.61
2023-12-31T07:43:06.103Z,91.88
2023-12-31T07:44:05.813Z,91.57
2023-12-31T07:45:05.786Z,91.47
2023-12-31T07:46:05.797Z,91.36
2023-12-31T07:47:05.967Z,90.84
2023-12-31T07:48:05.774Z,90.64
2023-12-31T07:49:05.882Z,90.74
2023-12-31T07:50:05.806Z,90.64
2023-12-31T07:51:05.727Z,90.74
2023-12-31T09:09:13.213Z,88.80
2023-12-31T09:09:19.217Z,89.11
2023-12-31T15:32:11.860Z,80.13
2023-12-31T15:33:09.727Z,80.61
2023-12-31T15:34:09.600Z,80.61
